Time;durP1;ratioP1;P1;durP2;ratioP2;P2;SDS_P1;SDS_P2;PMS_P1;PMS_P2;Temp;Humidity;BMP_temperature;BMP_pressure;BME280_temperature;BME280_humidity;BME280_pressure;Samples;Min_cycle;Max_cycle;Signal;HPM_P1;HPM_P2
2023/03/22 00:00:54;;;;;;;9.70;6.70;;;7.70;99.90;;;;;;4961888;28;20035;-92
2023/03/22 00:03:21;;;;;;;11.37;7.00;;;7.80;99.90;;;;;;4960886;28;20069;-92
2023/03/22 00:05:47;;;;;;;13.30;7.43;;;7.80;99.90;;;;;;4961129;28;20166;-91
2023/03/22 00:08:13;;;;;;;15.37;7.00;;;7.80;99.90;;;;;;4961911;28;20039;-91
2023/03/22 00:10:40;;;;;;;10.07;7.67;;;7.90;99.90;;;;;;4962202;28;20091;-92
2023/03/22 00:13:08;;;;;;;11.00;7.20;;;7.90;99.90;;;;;;4960369;28;20033;-91
2023/03/22 00:15:34;;;;;;;11.40;7.73;;;8.00;99.90;;;;;;4961792;28;20110;-91
2023/03/22 00:18:00;;;;;;;10.87;7.80;;;8.00;99.90;;;;;;4960292;28;21015;-91
2023/03/22 00:20:29;;;;;;;9.17;7.40;;;8.10;99.90;;;;;;4961011;28;20101;-92
2023/03/22 00:22:55;;;;;;;9.93;7.23;;;8.20;99.90;;;;;;4960480;28;20089;-91
2023/03/22 00:25:21;;;;;;;9.43;6.97;;;8.20;99.90;;;;;;4960427;28;20034;-92
2023/03/22 00:27:46;;;;;;;10.10;7.00;;;8.30;99.90;;;;;;4961855;28;20978;-92
2023/03/22 00:30:13;;;;;;;9.43;7.37;;;8.30;99.90;;;;;;4960392;28;20083;-91
2023/03/22 00:32:38;;;;;;;8.77;6.77;;;8.40;99.90;;;;;;4960188;28;20042;-92
2023/03/22 00:35:05;;;;;;;9.47;6.97;;;8.50;99.90;;;;;;4960419;28;20033;-91
2023/03/22 00:37:33;;;;;;;12.27;6.90;;;8.50;99.90;;;;;;4959458;28;20054;-91
2023/03/22 00:40:03;;;;;;;10.37;6.67;;;8.60;99.90;;;;;;4959742;28;20039;-91
2023/03/22 00:42:29;;;;;;;10.50;6.90;;;8.60;99.90;;;;;;4960207;28;20043;-92
2023/03/22 00:44:55;;;;;;;8.63;6.80;;;8.70;99.90;;;;;;4959984;28;20045;-91
2023/03/22 00:47:21;;;;;;;9.40;6.33;;;8.70;99.90;;;;;;4959632;28;20023;-92
2023/03/22 00:49:47;;;;;;;10.33;5.80;;;8.70;99.90;;;;;;4959191;28;20039;-91
2023/03/22 00:52:13;;;;;;;7.33;5.90;;;8.80;99.90;;;;;;4960286;28;20052;-92
2023/03/22 00:54:38;;;;;;;7.50;6.13;;;8.80;99.90;;;;;;4959553;28;20042;-91
2023/03/22 00:57:04;;;;;;;7.20;6.00;;;8.80;99.90;;;;;;4958950;28;20637;-91
2023/03/22 00:59:37;;;;;;;11.33;6.43;;;8.80;99.90;;;;;;4959661;28;20069;-92
2023/03/22 01:02:04;;;;;;;8.30;6.10;;;8.80;99.90;;;;;;4961754;28;20035;-91
2023/03/22 01:04:30;;;;;;;6.70;5.20;;;8.80;99.90;;;;;;4960511;28;20031;-92
2023/03/22 01:07:00;;;;;;;8.90;5.63;;;8.80;99.90;;;;;;4960711;28;20651;-91
2023/03/22 01:09:28;;;;;;;7.00;5.70;;;8.80;99.90;;;;;;4960438;28;20026;-92
2023/03/22 01:11:55;;;;;;;10.33;6.10;;;8.80;99.90;;;;;;4960189;28;20097;-92
2023/03/22 01:14:21;;;;;;;8.73;5.77;;;8.80;99.90;;;;;;4960227;28;20035;-92
2023/03/22 01:16:47;;;;;;;11.43;6.50;;;8.80;99.90;;;;;;4960069;28;20023;-92
2023/03/22 01:19:12;;;;;;;7.93;5.77;;;8.70;99.90;;;;;;4959985;28;20031;-92
2023/03/22 01:21:38;;;;;;;7.33;5.37;;;8.70;99.90;;;;;;4960959;28;20105;-92
2023/03/22 01:24:04;;;;;;;8.50;5.40;;;8.60;99.90;;;;;;4961913;28;20043;-92
2023/03/22 01:26:30;;;;;;;8.40;5.90;;;8.60;99.90;;;;;;4960201;28;20026;-91
2023/03/22 01:28:55;;;;;;;11.20;5.73;;;8.60;99.90;;;;;;4959751;28;20671;-91
2023/03/22 01:31:21;;;;;;;7.33;5.03;;;8.50;99.90;;;;;;4960740;28;20129;-92
2023/03/22 01:33:46;;;;;;;7.63;6.03;;;8.50;99.90;;;;;;4960396;28;20041;-92
2023/03/22 01:36:12;;;;;;;8.60;6.10;;;8.50;99.90;;;;;;4961301;28;20102;-93
2023/03/22 01:38:38;;;;;;;7.90;4.97;;;8.50;99.90;;;;;;4960316;28;20037;-92
2023/03/22 01:41:03;;;;;;;6.80;5.20;;;8.50;99.90;;;;;;4960754;28;20035;-92
2023/03/22 01:43:29;;;;;;;7.13;5.10;;;8.50;99.90;;;;;;4959379;28;20043;-92
2023/03/22 01:45:55;;;;;;;6.73;4.63;;;8.50;99.90;;;;;;4960816;28;20042;-91
2023/03/22 01:48:29;;;;;;;8.70;5.40;;;8.40;99.90;;;;;;4960746;28;20050;-92
2023/03/22 01:51:02;;;;;;;7.03;5.47;;;8.50;99.90;;;;;;4960955;28;20149;-92
2023/03/22 01:53:34;;;;;;;7.77;4.80;;;8.40;99.90;;;;;;4959587;28;20031;-92
2023/03/22 01:56:01;;;;;;;6.50;4.50;;;8.30;99.90;;;;;;4960195;28;20050;-92
2023/03/22 01:58:27;;;;;;;6.60;4.87;;;8.30;99.90;;;;;;4960132;28;20036;-92
2023/03/22 02:00:53;;;;;;;9.30;5.07;;;8.20;99.90;;;;;;4960010;28;20035;-92
2023/03/22 02:03:44;;;;;;;6.83;5.10;;;8.20;99.90;;;;;;4959312;28;20042;-92
2023/03/22 02:06:12;;;;;;;6.57;5.17;;;8.10;99.90;;;;;;4947087;28;20047;-92
2023/03/22 02:08:39;;;;;;;8.17;5.50;;;8.10;99.90;;;;;;4959144;28;20073;-92
2023/03/22 02:11:05;;;;;;;11.13;5.80;;;8.00;99.90;;;;;;4960234;28;20552;-91
2023/03/22 02:13:57;;;;;;;7.47;5.43;;;8.00;99.90;;;;;;4958116;28;20505;-91
2023/03/22 02:16:29;;;;;;;6.20;4.67;;;8.00;99.90;;;;;;4931615;28;20098;-94
2023/03/22 02:19:09;;;;;;;8.60;5.30;;;7.90;99.90;;;;;;4960835;28;20019;-91
2023/03/22 02:21:54;;;;;;;10.63;6.07;;;7.90;99.90;;;;;;4959532;28;20113;-92
2023/03/22 02:24:40;;;;;;;9.35;5.30;;;7.80;99.90;;;;;;4959215;28;20038;-92
2023/03/22 02:27:32;;;;;;;8.10;5.43;;;7.70;99.90;;;;;;4960891;28;20035;-91
2023/03/22 02:30:17;;;;;;;7.17;5.67;;;7.60;99.90;;;;;;4960710;28;20687;-92
2023/03/22 02:32:54;;;;;;;8.73;5.30;;;7.60;99.90;;;;;;4958667;28;20538;-92
2023/03/22 02:35:45;;;;;;;10.10;5.90;;;7.50;99.90;;;;;;4959797;28;20038;-92
2023/03/22 02:38:21;;;;;;;9.27;5.73;;;7.40;99.90;;;;;;4959229;28;20049;-92
2023/03/22 02:40:59;;;;;;;7.23;5.67;;;7.30;99.90;;;;;;4960683;28;20115;-93
2023/03/22 02:44:01;;;;;;;7.93;4.97;;;7.30;99.90;;;;;;4960955;28;20023;-92
2023/03/22 02:46:42;;;;;;;7.37;5.73;;;7.20;99.90;;;;;;4956878;28;20238;-92
2023/03/22 02:49:39;;;;;;;8.83;5.83;;;7.10;99.90;;;;;;4960064;28;20122;-92
2023/03/22 02:52:16;;;;;;;8.10;5.83;;;7.00;99.90;;;;;;4962228;28;20054;-92
2023/03/22 02:55:02;;;;;;;7.27;5.40;;;6.90;99.90;;;;;;4961169;28;20027;-93
2023/03/22 02:57:45;;;;;;;9.03;5.90;;;6.90;99.90;;;;;;4960330;28;20031;-92
2023/03/22 03:00:14;;;;;;;8.27;5.80;;;6.80;99.90;;;;;;4960671;28;20355;-93
2023/03/22 03:02:44;;;;;;;7.77;6.00;;;6.80;99.90;;;;;;4959311;28;20521;-92
2023/03/22 03:05:12;;;;;;;11.07;5.43;;;6.70;99.90;;;;;;4960040;28;20023;-93
2023/03/22 03:08:01;;;;;;;11.00;5.90;;;6.70;99.90;;;;;;4960102;28;20043;-93
2023/03/22 03:10:27;;;;;;;8.97;6.07;;;6.70;99.90;;;;;;4937271;29;20035;-92
2023/03/22 03:12:53;;;;;;;7.07;5.80;;;6.70;99.90;;;;;;4939816;28;20036;-92
2023/03/22 03:15:20;;;;;;;8.43;5.70;;;6.60;99.90;;;;;;4942349;29;20027;-92
2023/03/22 03:18:05;;;;;;;8.53;6.00;;;6.60;99.90;;;;;;4941650;29;20123;-92
2023/03/22 03:20:59;;;;;;;10.80;5.73;;;6.60;99.90;;;;;;4941622;29;20099;-92
2023/03/22 03:23:32;;;;;;;8.93;5.53;;;6.60;99.90;;;;;;4930188;29;20102;-92
2023/03/22 03:26:10;;;;;;;8.77;5.83;;;6.60;99.90;;;;;;4942941;28;20126;-92
2023/03/22 03:28:39;;;;;;;10.00;6.00;;;6.60;99.90;;;;;;4940278;29;20051;-92
2023/03/22 03:31:09;;;;;;;12.07;5.90;;;6.60;99.90;;;;;;4942897;29;20630;-92
2023/03/22 03:33:40;;;;;;;9.93;5.77;;;6.50;99.90;;;;;;4941405;29;20043;-92
2023/03/22 03:36:11;;;;;;;8.33;5.97;;;6.50;99.90;;;;;;4941562;29;20082;-92
2023/03/22 03:38:45;;;;;;;9.07;6.10;;;6.50;99.90;;;;;;4941026;29;20123;-92
2023/03/22 03:41:15;;;;;;;9.67;5.60;;;6.40;99.90;;;;;;4950321;28;20579;-93
2023/03/22 03:43:42;;;;;;;9.13;5.57;;;6.40;99.90;;;;;;4962526;28;20044;-92
2023/03/22 03:46:08;;;;;;;10.20;6.00;;;6.40;99.90;;;;;;4962523;28;20057;-92
2023/03/22 03:48:36;;;;;;;14.40;5.60;;;6.40;99.90;;;;;;4963877;28;20513;-92
2023/03/22 03:51:02;;;;;;;11.33;6.20;;;6.30;99.90;;;;;;4965262;28;20027;-92
2023/03/22 03:53:28;;;;;;;9.40;5.60;;;6.30;99.90;;;;;;4964231;28;20050;-91
2023/03/22 03:55:54;;;;;;;8.67;5.77;;;6.30;99.90;;;;;;4964976;28;20506;-92
2023/03/22 03:58:20;;;;;;;8.50;6.00;;;6.20;99.90;;;;;;4964650;28;20062;-92
2023/03/22 04:00:47;;;;;;;8.50;5.57;;;6.20;99.90;;;;;;4964732;28;20419;-91
2023/03/22 04:03:13;;;;;;;10.13;5.70;;;6.20;99.90;;;;;;4962106;28;20035;-92
2023/03/22 04:05:39;;;;;;;10.83;5.23;;;6.20;99.90;;;;;;4963158;28;20023;-93
2023/03/22 04:08:05;;;;;;;10.57;5.83;;;6.20;99.90;;;;;;4963008;28;20347;-92
2023/03/22 04:10:31;;;;;;;12.00;6.93;;;6.10;99.90;;;;;;4964282;28;20054;-91
2023/03/22 04:12:56;;;;;;;9.10;5.60;;;6.10;99.90;;;;;;4962023;28;20069;-92
2023/03/22 04:15:23;;;;;;;9.77;5.80;;;6.10;99.90;;;;;;4963384;28;20127;-92
2023/03/22 04:17:48;;;;;;;7.53;5.20;;;6.00;99.90;;;;;;4963783;28;20034;-91
2023/03/22 04:20:14;;;;;;;8.37;5.23;;;6.00;99.90;;;;;;4964818;28;20029;-92
2023/03/22 04:22:41;;;;;;;7.30;5.20;;;5.90;99.90;;;;;;4965143;28;20320;-92
2023/03/22 04:25:10;;;;;;;13.43;5.83;;;5.90;99.90;;;;;;4964112;28;20026;-92
2023/03/22 04:27:37;;;;;;;7.37;5.53;;;5.90;99.90;;;;;;4963614;28;20065;-92
2023/03/22 04:30:05;;;;;;;8.63;5.97;;;5.90;99.90;;;;;;4962529;28;20042;-92
2023/03/22 04:32:31;;;;;;;8.33;6.57;;;5.90;99.90;;;;;;4963521;28;20098;-91
2023/03/22 04:34:57;;;;;;;8.60;6.60;;;5.90;99.90;;;;;;4963831;28;20101;-91
2023/03/22 04:37:25;;;;;;;9.10;6.10;;;5.90;99.90;;;;;;4961819;28;20148;-91
2023/03/22 04:39:51;;;;;;;10.83;7.10;;;5.90;99.90;;;;;;4962697;28;20035;-92
2023/03/22 04:42:17;;;;;;;11.00;7.17;;;5.90;99.90;;;;;;4962313;28;20023;-92
2023/03/22 04:44:43;;;;;;;9.10;6.77;;;5.90;99.90;;;;;;4962505;28;20058;-91
2023/03/22 04:47:08;;;;;;;11.00;7.23;;;5.90;99.90;;;;;;4961279;28;20027;-92
2023/03/22 04:49:34;;;;;;;13.33;8.13;;;5.90;99.90;;;;;;4961513;28;20039;-92
2023/03/22 04:52:00;;;;;;;17.30;7.93;;;5.90;99.90;;;;;;4981057;28;20035;-92
2023/03/22 04:54:25;;;;;;;10.47;7.13;;;5.90;99.90;;;;;;4960458;28;20402;-91
2023/03/22 04:56:51;;;;;;;12.50;7.13;;;5.90;99.90;;;;;;4960713;28;21129;-91
2023/03/22 04:59:19;;;;;;;10.07;6.50;;;5.80;99.90;;;;;;4960491;28;20034;-92
2023/03/22 05:01:45;;;;;;;8.00;5.77;;;5.80;99.90;;;;;;4960582;28;20054;-92
2023/03/22 05:04:11;;;;;;;9.77;6.30;;;5.80;99.90;;;;;;4960725;28;20035;-92
2023/03/22 05:06:37;;;;;;;9.17;6.33;;;5.80;99.90;;;;;;4963172;28;20493;-92
2023/03/22 05:09:02;;;;;;;15.93;6.57;;;5.70;99.90;;;;;;4962383;28;20046;-92
2023/03/22 05:11:28;;;;;;;9.33;6.07;;;5.60;99.90;;;;;;4961945;28;20059;-93
2023/03/22 05:13:54;;;;;;;8.90;5.47;;;5.60;99.90;;;;;;4962807;28;20031;-93
2023/03/22 05:16:20;;;;;;;8.93;6.03;;;5.60;99.90;;;;;;4963321;28;20157;-92
2023/03/22 05:18:46;;;;;;;9.33;5.90;;;5.60;99.90;;;;;;4961229;28;20104;-92
2023/03/22 05:21:14;;;;;;;8.37;5.93;;;5.50;99.90;;;;;;4963464;28;21196;-92
2023/03/22 05:23:44;;;;;;;8.77;5.93;;;5.50;99.90;;;;;;4963896;28;21030;-93
2023/03/22 05:26:14;;;;;;;11.50;5.83;;;5.50;99.90;;;;;;4964224;28;20035;-92
2023/03/22 05:28:41;;;;;;;9.23;5.77;;;5.50;99.90;;;;;;4964012;28;20062;-93
2023/03/22 05:31:09;;;;;;;8.33;5.90;;;5.40;99.90;;;;;;4964443;28;20059;-92
2023/03/22 05:33:35;;;;;;;6.97;5.60;;;5.40;99.90;;;;;;4964014;28;20066;-93
2023/03/22 05:36:01;;;;;;;11.50;5.50;;;5.40;99.90;;;;;;4963681;28;21015;-93
2023/03/22 05:38:26;;;;;;;12.13;6.00;;;5.30;99.90;;;;;;4961736;28;20099;-94
2023/03/22 05:40:52;;;;;;;7.00;5.53;;;5.30;99.90;;;;;;4963538;28;20431;-93
2023/03/22 05:43:20;;;;;;;10.63;6.30;;;5.30;99.90;;;;;;4962859;28;20101;-93
2023/03/22 05:45:46;;;;;;;10.50;5.60;;;5.30;99.90;;;;;;4963431;28;20027;-93
2023/03/22 05:48:12;;;;;;;7.43;5.70;;;5.40;99.90;;;;;;4961107;28;20539;-92
2023/03/22 05:50:38;;;;;;;13.17;5.40;;;5.40;99.90;;;;;;4962302;28;20035;-90
2023/03/22 05:53:03;;;;;;;11.13;5.67;;;5.40;99.90;;;;;;4956055;28;20027;-84
2023/03/22 05:55:30;;;;;;;10.43;5.97;;;5.40;99.90;;;;;;4962842;28;20896;-92
2023/03/22 05:57:57;;;;;;;9.00;5.43;;;5.40;99.90;;;;;;4958500;28;20035;-93
2023/03/22 06:00:24;;;;;;;7.17;5.23;;;5.50;99.90;;;;;;4956803;28;20034;-92
2023/03/22 06:02:55;;;;;;;8.40;5.27;;;5.50;99.90;;;;;;4952262;28;20074;-87
2023/03/22 06:05:21;;;;;;;8.77;5.53;;;5.50;99.90;;;;;;4950441;28;20034;-88
2023/03/22 06:07:46;;;;;;;12.47;5.87;;;5.60;99.90;;;;;;4948552;28;20083;-80
2023/03/22 06:10:14;;;;;;;7.00;5.10;;;5.60;99.90;;;;;;4951126;28;20045;-80
2023/03/22 06:12:40;;;;;;;8.07;5.30;;;5.70;99.90;;;;;;4949581;28;20253;-80
2023/03/22 06:15:06;;;;;;;11.87;5.30;;;5.70;99.90;;;;;;4949041;28;20944;-80
2023/03/22 06:17:32;;;;;;;7.40;5.27;;;5.80;99.90;;;;;;4948960;28;20038;-80
2023/03/22 06:19:58;;;;;;;10.63;5.33;;;5.80;99.90;;;;;;4950279;28;20394;-80
2023/03/22 06:22:23;;;;;;;7.17;5.13;;;5.90;99.90;;;;;;4950065;28;20078;-81
2023/03/22 06:24:49;;;;;;;8.37;4.60;;;6.00;99.90;;;;;;4949990;28;20034;-80
2023/03/22 06:27:16;;;;;;;12.97;4.80;;;6.10;99.90;;;;;;4946932;28;20051;-81
2023/03/22 06:29:43;;;;;;;7.03;4.40;;;6.20;99.90;;;;;;4948912;28;20043;-80
2023/03/22 06:32:09;;;;;;;9.80;4.10;;;6.30;99.90;;;;;;4949504;28;20118;-81
2023/03/22 06:34:35;;;;;;;9.00;4.20;;;6.40;99.90;;;;;;4950591;28;20057;-80
2023/03/22 06:37:00;;;;;;;5.63;4.20;;;6.50;99.90;;;;;;4950963;28;20035;-80
2023/03/22 06:39:26;;;;;;;9.97;3.97;;;6.70;99.90;;;;;;4954417;28;20916;-81
2023/03/22 06:41:52;;;;;;;11.43;4.17;;;6.80;99.90;;;;;;4954748;28;21504;-80
2023/03/22 06:44:18;;;;;;;6.87;4.40;;;6.90;99.90;;;;;;4954113;28;20041;-77
2023/03/22 06:46:44;;;;;;;8.93;4.33;;;7.00;99.90;;;;;;4954202;28;20043;-81
2023/03/22 06:49:10;;;;;;;9.33;4.07;;;7.10;99.90;;;;;;4956348;28;20043;-90
2023/03/22 06:51:35;;;;;;;6.77;3.60;;;7.10;99.90;;;;;;4954919;28;20255;-90
2023/03/22 06:54:01;;;;;;;6.53;3.90;;;7.20;99.90;;;;;;4955417;28;21383;-87
2023/03/22 06:56:26;;;;;;;6.60;3.50;;;7.30;99.90;;;;;;4955232;28;20114;-87
2023/03/22 06:58:53;;;;;;;8.77;3.47;;;7.40;99.90;;;;;;4954705;28;20027;-87
2023/03/22 07:01:20;;;;;;;8.03;3.73;;;7.50;99.90;;;;;;4953946;28;20050;-87
2023/03/22 07:03:45;;;;;;;6.77;3.27;;;7.60;99.90;;;;;;4952181;28;20023;-87
2023/03/22 07:06:11;;;;;;;10.33;3.40;;;7.80;99.90;;;;;;4954437;28;20031;-88
2023/03/22 07:08:37;;;;;;;6.23;3.20;;;7.90;99.90;;;;;;4954219;28;20043;-87
2023/03/22 07:11:04;;;;;;;7.37;3.40;;;8.00;99.90;;;;;;4955004;28;20888;-88
2023/03/22 07:13:29;;;;;;;6.10;3.10;;;8.10;99.90;;;;;;4949148;28;20046;-87
2023/03/22 07:15:56;;;;;;;4.77;3.30;;;8.30;99.90;;;;;;4949145;28;20039;-88
2023/03/22 07:18:23;;;;;;;6.43;2.93;;;8.50;99.90;;;;;;4949413;28;21289;-88
2023/03/22 07:20:49;;;;;;;4.00;2.77;;;8.60;99.90;;;;;;4949885;28;20122;-87
2023/03/22 07:23:15;;;;;;;4.30;2.90;;;8.70;99.90;;;;;;4949914;28;20045;-88
2023/03/22 07:25:41;;;;;;;8.80;3.60;;;8.80;99.90;;;;;;4950931;28;20829;-87
2023/03/22 07:28:09;;;;;;;7.00;3.13;;;8.90;99.90;;;;;;4950011;28;20133;-88
2023/03/22 07:30:36;;;;;;;6.97;3.43;;;9.00;99.90;;;;;;4949366;28;20069;-88
2023/03/22 07:33:02;;;;;;;4.80;3.50;;;9.10;99.90;;;;;;4948695;28;20027;-88
2023/03/22 07:35:29;;;;;;;9.13;3.50;;;9.30;99.90;;;;;;4949820;28;20070;-88
2023/03/22 07:37:54;;;;;;;5.30;3.43;;;9.40;99.90;;;;;;4954834;28;20027;-87
2023/03/22 07:40:24;;;;;;;4.47;3.30;;;9.50;99.90;;;;;;4948821;28;20093;-88
2023/03/22 07:42:50;;;;;;;6.43;3.73;;;9.70;99.90;;;;;;4948031;28;20063;-88
2023/03/22 07:45:17;;;;;;;6.80;3.60;;;9.90;99.90;;;;;;4949956;28;20046;-87
2023/03/22 07:47:45;;;;;;;7.00;3.93;;;9.90;99.90;;;;;;4949708;28;20035;-88
2023/03/22 07:50:15;;;;;;;6.93;3.70;;;10.10;99.90;;;;;;4949957;28;20057;-88
2023/03/22 07:52:41;;;;;;;9.50;3.80;;;10.20;99.90;;;;;;4953389;28;20027;-87
2023/03/22 07:55:09;;;;;;;7.03;4.03;;;10.30;99.90;;;;;;4972641;28;20077;-87
2023/03/22 07:57:35;;;;;;;6.97;3.70;;;10.50;99.90;;;;;;4953913;28;20032;-87
2023/03/22 08:00:03;;;;;;;8.17;4.03;;;10.70;99.90;;;;;;4957542;28;20029;-87
2023/03/22 08:02:29;;;;;;;6.93;4.13;;;10.90;99.90;;;;;;4955763;28;20031;-88
2023/03/22 08:04:55;;;;;;;7.37;3.83;;;11.10;99.90;;;;;;4957805;28;20038;-87
2023/03/22 08:07:20;;;;;;;6.73;3.70;;;11.20;99.90;;;;;;4957322;28;20033;-88
2023/03/22 08:09:46;;;;;;;6.85;4.18;;;11.30;99.90;;;;;;4957432;28;20107;-76
2023/03/22 08:12:12;;;;;;;7.28;3.80;;;11.50;99.90;;;;;;4957560;28;20130;-90
2023/03/22 08:14:37;;;;;;;9.68;4.45;;;11.70;99.90;;;;;;4957131;28;20836;-90
2023/03/22 08:17:06;;;;;;;6.13;3.63;;;11.80;99.90;;;;;;4957950;28;20066;-89
2023/03/22 08:19:33;;;;;;;8.75;3.85;;;12.00;99.90;;;;;;4957318;28;20030;-89
2023/03/22 08:21:58;;;;;;;5.32;3.95;;;12.10;99.90;;;;;;4957722;28;20031;-89
2023/03/22 08:24:25;;;;;;;6.43;4.18;;;12.20;99.90;;;;;;4955733;28;20077;-89
2023/03/22 08:26:52;;;;;;;5.75;3.72;;;12.20;99.90;;;;;;4958014;28;20031;-89
2023/03/22 08:29:22;;;;;;;6.75;4.35;;;12.40;99.90;;;;;;4956701;28;20034;-89
2023/03/22 08:31:48;;;;;;;9.63;4.28;;;12.50;99.90;;;;;;4957205;28;20075;-89
2023/03/22 08:34:13;;;;;;;8.32;4.28;;;12.60;99.90;;;;;;4957803;28;20114;-89
2023/03/22 08:36:39;;;;;;;6.25;3.90;;;12.70;99.90;;;;;;4957741;28;20074;-88
2023/03/22 08:39:05;;;;;;;7.97;3.75;;;12.80;99.90;;;;;;4957325;28;20058;-89
2023/03/22 08:41:32;;;;;;;4.22;3.10;;;12.90;99.90;;;;;;4957496;28;20399;-87
2023/03/22 08:43:58;;;;;;;5.63;3.30;;;13.10;99.90;;;;;;4957139;28;20031;-89
2023/03/22 08:46:24;;;;;;;6.70;3.30;;;13.10;99.90;;;;;;4956316;28;20478;-89
2023/03/22 08:48:52;;;;;;;6.88;3.05;;;13.30;99.90;;;;;;4956846;28;20647;-89
2023/03/22 08:51:20;;;;;;;5.90;3.20;;;13.40;99.90;;;;;;4958245;28;20762;-88
2023/03/22 08:53:47;;;;;;;3.85;2.35;;;13.60;99.90;;;;;;4956352;28;20042;-89
2023/03/22 08:56:15;;;;;;;4.68;2.92;;;13.70;99.90;;;;;;4957076;28;20076;-89
2023/03/22 08:58:45;;;;;;;4.97;2.75;;;13.80;99.90;;;;;;4956346;28;20041;-89
2023/03/22 09:01:12;;;;;;;5.15;2.63;;;14.00;99.90;;;;;;4957389;28;20043;-88
2023/03/22 09:03:37;;;;;;;3.67;2.40;;;14.10;99.90;;;;;;4954973;28;20480;-88
2023/03/22 09:06:03;;;;;;;5.32;2.70;;;14.30;99.90;;;;;;4956645;28;20027;-89
2023/03/22 09:08:29;;;;;;;5.15;2.65;;;14.50;99.90;;;;;;4956217;28;20039;-89
2023/03/22 09:10:55;;;;;;;4.20;2.42;;;14.70;99.90;;;;;;4956431;28;20086;-89
2023/03/22 09:13:20;;;;;;;3.38;2.33;;;14.90;99.90;;;;;;4954448;28;20066;-89
2023/03/22 09:15:46;;;;;;;4.50;2.65;;;15.10;99.90;;;;;;4956837;28;20390;-88
2023/03/22 09:18:13;;;;;;;4.10;2.67;;;15.20;99.90;;;;;;4955927;28;20039;-87
2023/03/22 09:20:39;;;;;;;4.50;2.97;;;15.30;99.90;;;;;;4957370;28;20058;-89
2023/03/22 09:23:05;;;;;;;3.85;2.80;;;15.50;99.90;;;;;;4955227;28;20173;-88
2023/03/22 09:25:31;;;;;;;4.97;2.70;;;15.50;99.90;;;;;;4956337;28;20039;-88
2023/03/22 09:27:56;;;;;;;6.07;2.75;;;15.60;99.90;;;;;;4953766;28;20045;-89
2023/03/22 09:30:22;;;;;;;5.60;2.72;;;15.70;99.90;;;;;;4953062;28;20050;-88
2023/03/22 09:32:48;;;;;;;5.43;3.00;;;15.90;99.90;;;;;;4953506;28;20038;-89
2023/03/22 09:35:13;;;;;;;3.70;2.80;;;16.20;99.90;;;;;;4954734;28;20038;-87
2023/03/22 09:37:39;;;;;;;7.20;3.25;;;16.20;99.90;;;;;;4954879;28;20023;-88
2023/03/22 09:40:06;;;;;;;5.55;2.83;;;16.10;99.90;;;;;;4955220;28;20033;-87
2023/03/22 09:42:50;;;;;;;4.45;2.75;;;16.20;99.90;;;;;;4954639;28;20123;-87
2023/03/22 09:45:20;;;;;;;5.13;2.90;;;16.60;99.90;;;;;;4955118;28;20031;-88
2023/03/22 09:47:50;;;;;;;4.10;2.90;;;16.60;99.90;;;;;;4954030;28;20118;-87
2023/03/22 09:50:22;;;;;;;5.65;2.75;;;16.60;99.90;;;;;;4955395;28;20122;-88
2023/03/22 09:52:49;;;;;;;4.53;2.40;;;16.70;99.90;;;;;;4954069;28;20328;-89
2023/03/22 09:55:17;;;;;;;4.10;2.60;;;17.00;99.90;;;;;;4954501;28;20109;-88
2023/03/22 09:57:48;;;;;;;4.20;2.80;;;17.10;99.90;;;;;;4954181;28;20715;-88
2023/03/22 10:00:40;;;;;;;4.85;2.80;;;17.20;99.90;;;;;;4954444;28;20073;-88
2023/03/22 10:03:13;;;;;;;4.65;2.75;;;17.40;99.90;;;;;;4950008;28;20027;-87
2023/03/22 10:05:57;;;;;;;3.38;2.35;;;17.40;99.90;;;;;;4953088;28;20762;-88
2023/03/22 10:08:34;;;;;;;6.95;2.38;;;17.50;99.90;;;;;;4953622;28;20039;-89
2023/03/22 10:11:00;;;;;;;4.47;2.50;;;17.50;99.90;;;;;;4954910;28;20035;-89
2023/03/22 10:13:34;;;;;;;4.40;2.80;;;17.70;99.90;;;;;;4951744;28;20042;-88
2023/03/22 10:16:06;;;;;;;5.05;2.78;;;17.80;99.90;;;;;;4955543;28;20556;-88
2023/03/22 10:18:37;;;;;;;5.15;2.72;;;17.70;99.90;;;;;;4955023;28;20027;-88
2023/03/22 10:21:08;;;;;;;4.15;2.78;;;17.80;99.90;;;;;;4955519;28;20166;-87
2023/03/22 10:23:51;;;;;;;7.32;2.83;;;17.80;99.90;;;;;;4955294;28;20015;-88
2023/03/22 10:26:25;;;;;;;3.83;2.50;;;17.80;99.90;;;;;;4955370;28;20039;-88
2023/03/22 10:29:14;;;;;;;4.53;2.53;;;17.80;99.90;;;;;;4954855;28;20057;-88
2023/03/22 10:31:45;;;;;;;3.55;2.55;;;17.90;99.90;;;;;;4954813;28;20069;-87
2023/03/22 10:34:29;;;;;;;5.50;2.65;;;18.00;99.90;;;;;;4954383;28;20077;-87
2023/03/22 10:36:59;;;;;;;3.65;2.30;;;18.00;99.90;;;;;;4955199;28;20079;-85
2023/03/22 10:39:40;;;;;;;3.90;2.53;;;18.10;99.90;;;;;;4954462;28;20066;-87
2023/03/22 10:42:19;;;;;;;3.67;2.30;;;18.20;99.90;;;;;;4954799;28;20034;-88
2023/03/22 10:44:54;;;;;;;4.07;2.15;;;18.50;99.90;;;;;;4954836;28;20166;-86
2023/03/22 10:47:34;;;;;;;4.35;2.30;;;18.40;99.90;;;;;;4954522;28;20118;-86
2023/03/22 10:50:04;;;;;;;4.15;2.28;;;18.40;99.90;;;;;;4954894;28;20022;-86
2023/03/22 10:52:36;;;;;;;3.42;2.42;;;18.40;99.90;;;;;;4953934;28;20034;-87
2023/03/22 10:55:03;;;;;;;5.68;2.20;;;18.50;99.90;;;;;;4955308;28;20023;-86
2023/03/22 10:57:28;;;;;;;3.97;2.35;;;18.70;99.90;;;;;;4954385;28;20027;-87
2023/03/22 10:59:55;;;;;;;4.32;2.85;;;18.80;99.90;;;;;;4953478;28;20122;-87
2023/03/22 11:02:25;;;;;;;5.78;2.80;;;18.90;99.90;;;;;;4954085;28;20034;-87
2023/03/22 11:04:54;;;;;;;5.93;2.60;;;18.90;99.90;;;;;;4954036;28;20031;-88
2023/03/22 11:07:28;;;;;;;3.50;2.13;;;19.00;99.90;;;;;;4954039;28;20019;-86
2023/03/22 11:10:07;;;;;;;3.72;2.38;;;18.90;99.90;;;;;;4954518;28;20023;-88
2023/03/22 11:12:33;;;;;;;3.28;2.28;;;19.00;99.90;;;;;;4954981;28;20629;-88
2023/03/22 11:14:59;;;;;;;4.93;2.63;;;19.20;99.90;;;;;;4954390;28;20031;-88
2023/03/22 11:17:24;;;;;;;4.18;2.40;;;19.20;99.90;;;;;;4955041;28;20050;-87
2023/03/22 11:19:52;;;;;;;4.72;2.55;;;19.30;99.90;;;;;;4954635;28;20031;-87
2023/03/22 11:22:36;;;;;;;8.18;2.78;;;19.30;99.90;;;;;;4958574;28;20047;-88
2023/03/22 11:25:12;;;;;;;7.10;3.10;;;19.30;99.90;;;;;;4958917;28;20516;-87
2023/03/22 11:27:52;;;;;;;3.90;3.00;;;19.50;99.90;;;;;;4958383;28;20039;-87
2023/03/22 11:30:23;;;;;;;4.30;2.78;;;19.70;99.90;;;;;;4958769;28;20498;-88
2023/03/22 11:32:58;;;;;;;6.75;3.00;;;19.90;99.90;;;;;;4958076;28;20035;-87
2023/03/22 11:35:25;;;;;;;3.97;2.40;;;20.00;99.90;;;;;;4963500;28;20031;-89
2023/03/22 11:37:53;;;;;;;12.20;3.03;;;19.80;99.90;;;;;;4962742;28;20034;-87
2023/03/22 11:40:25;;;;;;;4.63;2.45;;;19.90;99.40;;;;;;4961863;28;20046;-88
2023/03/22 11:42:54;;;;;;;3.28;2.58;;;20.00;99.90;;;;;;4958880;28;20038;-87
2023/03/22 11:45:28;;;;;;;5.10;2.33;;;20.20;99.90;;;;;;4959260;28;20035;-88
2023/03/22 11:48:01;;;;;;;5.05;2.60;;;20.20;99.20;;;;;;4958155;28;20393;-87
2023/03/22 11:50:33;;;;;;;6.28;2.35;;;20.10;99.00;;;;;;4958865;28;20082;-87
2023/03/22 11:53:01;;;;;;;6.28;2.58;;;20.10;98.00;;;;;;4957675;28;21365;-87
2023/03/22 11:55:30;;;;;;;6.82;2.70;;;20.20;99.50;;;;;;4956593;28;20474;-75
2023/03/22 11:57:56;;;;;;;4.22;2.90;;;20.30;98.90;;;;;;4956839;28;20054;-86
2023/03/22 12:00:31;;;;;;;8.75;2.72;;;20.20;98.20;;;;;;4957301;28;20134;-86
2023/03/22 12:03:00;;;;;;;;;;;20.20;99.50;;;;;;4957313;28;20051;-86
2023/03/22 12:05:32;;;;;;;5.55;2.50;;;20.20;98.80;;;;;;4957598;28;20806;-86
2023/03/22 12:08:10;;;;;;;6.82;2.50;;;20.50;98.20;;;;;;4955480;28;20118;-87
2023/03/22 12:10:40;;;;;;;3.30;2.30;;;20.60;96.70;;;;;;4956404;28;20044;-86
2023/03/22 12:13:45;;;;;;;5.25;2.40;;;20.90;96.70;;;;;;4956761;28;20026;-87
2023/03/22 12:16:14;;;;;;;3.00;2.15;;;21.20;96.60;;;;;;4951423;28;20050;-86
2023/03/22 12:19:05;;;;;;;8.20;2.50;;;21.20;95.80;;;;;;4956595;28;20558;-87
2023/03/22 12:21:31;;;;;;;2.78;2.13;;;21.10;94.70;;;;;;4957182;28;20031;-86
2023/03/22 12:24:01;;;;;;;6.00;1.95;;;21.10;94.60;;;;;;4957098;28;20039;-86
2023/03/22 12:26:29;;;;;;;4.25;1.90;;;21.00;93.70;;;;;;4957196;28;20054;-85
2023/03/22 12:29:03;;;;;;;3.53;2.00;;;21.10;94.00;;;;;;4956564;28;20043;-86
2023/03/22 12:31:41;;;;;;;5.85;1.80;;;21.30;92.70;;;;;;4956698;28;20403;-85
2023/03/22 12:34:17;;;;;;;4.15;1.80;;;21.50;93.10;;;;;;4956288;28;20445;-85
2023/03/22 12:36:48;;;;;;;4.70;1.77;;;21.70;92.40;;;;;;4956867;28;20652;-85
2023/03/22 12:39:51;;;;;;;2.97;2.28;;;21.70;93.30;;;;;;4956214;28;20042;-86
2023/03/22 12:42:31;;;;;;;5.57;2.10;;;21.80;92.70;;;;;;4933858;29;20046;-85
2023/03/22 12:45:12;;;;;;;3.50;2.08;;;21.80;93.50;;;;;;4953800;28;20038;-85
2023/03/22 12:47:41;;;;;;;3.35;2.03;;;21.70;93.00;;;;;;4975082;28;20051;-85
2023/03/22 12:50:18;;;;;;;3.67;1.80;;;21.80;92.20;;;;;;4956590;28;20029;-84
2023/03/22 12:52:53;;;;;;;2.80;1.75;;;21.90;91.40;;;;;;4975742;28;20039;-85
2023/03/22 12:55:31;;;;;;;3.92;1.65;;;21.90;90.10;;;;;;4956540;28;20077;-85
2023/03/22 12:57:57;;;;;;;2.08;1.60;;;21.90;90.20;;;;;;4954025;28;20042;-86
2023/03/22 13:00:51;;;;;;;3.60;1.50;;;21.80;90.30;;;;;;4956763;28;20031;-84
2023/03/22 13:03:17;;;;;;;6.45;1.80;;;21.80;91.10;;;;;;4952870;28;20035;-84